PWSweather.com
Personal Weather Stations
Station Observations
METEORENI
Tielt, Witte Kave, TieltBE

Tielt, Witte KaveTieltBE

Lat: 50.9938727, Lon: 3.341134199999942

Elevation: 0

Station Type: Netatmo

Latest ConditionsUpdated 11:43:00 AM GMT+01:01 Sunday, Feb 17, 2019
Currently Today's Max Today's Min Today's Average
Temperature 49.6°F9.8°C 49.6°F9.8°C 37.6°F3.1°C 41.3°F5.2°C
Dew Point 38.7°F3.7°C 38.7°F3.7°C 30.9°F-0.6°C 34.1°F1.2°C
Winds 2.5 mph SE4.0 kmh SE 2.5 mph -4.0 kmh - - 0.9 mph 1.4 kmh
Wind Gusts 5.6 mph9.0 kmh 11.2 mph18.0 kmh - -
Humidity 71% 85% 71% 80%
Pressure 30.22 in1023.4 mb 30.35 in1027.8 mb 30.22 in1023.4 mb -
Hour Temp Dew Point Humidity Winds Wind Gusts Pressure Precip Precip Rate Daily Precip Total
11:43 AM 49.6°F9.8°C 38.7°F3.7°C 71% 2.5 mph SE4.0 kmh SE 5.6 mph9.0 kmh 30.22 in1023.4 mb 0.00 in0.0 mm 0.00 in0.0 mm 0.00 in0.0 mm
11:29 AM 48.7°F9.3°C 38.5°F3.6°C 73% 2.5 mph SE4.0 kmh SE 4.9 mph7.9 kmh 30.22 in1023.4 mb 0.00 in0.0 mm 0.00 in0.0 mm 0.00 in0.0 mm
11:08 AM 47.5°F8.6°C 37.8°F3.2°C 74% 2.5 mph S4.0 kmh S 11.2 mph18.0 kmh 30.23 in1023.7 mb 0.00 in0.0 mm 0.00 in0.0 mm 0.00 in0.0 mm
10:48 AM 46.2°F7.9°C 37.6°F3.1°C 77% 1.8 mph SE2.9 kmh SE 5.6 mph9.0 kmh 30.23 in1023.7 mb 0.00 in0.0 mm 0.00 in0.0 mm 0.00 in0.0 mm
10:27 AM 45.1°F7.3°C 37.4°F3.0°C 79% 1.8 mph SE2.9 kmh SE 4.9 mph7.9 kmh 30.23 in1023.7 mb 0.00 in0.0 mm 0.00 in0.0 mm 0.00 in0.0 mm
09:57 AM 43.3°F6.3°C 36.3°F2.4°C 81% 1.8 mph SE2.9 kmh SE 5.6 mph9.0 kmh 30.24 in1024.0 mb 0.00 in0.0 mm 0.00 in0.0 mm 0.00 in0.0 mm
09:47 AM 42.6°F5.9°C 36.0°F2.2°C 82% 1.8 mph S2.9 kmh S 3.8 mph6.1 kmh 30.24 in1024.0 mb 0.00 in0.0 mm 0.00 in0.0 mm 0.00 in0.0 mm
09:27 AM 41.4°F5.2°C 34.7°F1.5°C 82% 1.8 mph S2.9 kmh S 3.8 mph6.1 kmh 30.24 in1024.0 mb 0.00 in0.0 mm 0.00 in0.0 mm 0.00 in0.0 mm
09:07 AM 40.5°F4.7°C 33.8°F1.0°C 82% 0.7 mph SSE1.1 kmh SSE 2.5 mph4.0 kmh 30.24 in1024.0 mb 0.00 in0.0 mm 0.00 in0.0 mm 0.00 in0.0 mm
08:46 AM 39.6°F4.2°C 33.4°F0.8°C 83% 1.8 mph NW2.9 kmh NW 3.1 mph5.0 kmh 30.24 in1024.0 mb 0.00 in0.0 mm 0.00 in0.0 mm 0.00 in0.0 mm
08:26 AM 39.4°F4.1°C 33.3°F0.7°C 83% 0.7 mph NW1.1 kmh NW 1.8 mph2.9 kmh 30.24 in1024.0 mb 0.00 in0.0 mm 0.00 in0.0 mm 0.00 in0.0 mm
08:05 AM 38.8°F3.8°C 33.4°F0.8°C 85% 1.8 mph 2.9 kmh 3.1 mph5.0 kmh 30.24 in1024.0 mb 0.00 in0.0 mm 0.00 in0.0 mm 0.00 in0.0 mm
07:46 AM 38.1°F3.4°C 32.4°F0.2°C 84% 0.7 mph NW1.1 kmh NW 2.5 mph4.0 kmh 30.24 in1024.0 mb 0.00 in0.0 mm 0.00 in0.0 mm 0.00 in0.0 mm
07:25 AM 37.8°F3.2°C 31.6°F-0.2°C 83% 0.7 mph 1.1 kmh 2.5 mph4.0 kmh 30.25 in1024.4 mb 0.00 in0.0 mm 0.00 in0.0 mm 0.00 in0.0 mm
07:05 AM 37.6°F3.1°C 31.1°F-0.5°C 82% 0.7 mph 1.1 kmh 2.5 mph4.0 kmh 30.24 in1024.0 mb 0.00 in0.0 mm 0.00 in0.0 mm 0.00 in0.0 mm
06:45 AM 37.8°F3.2°C 30.9°F-0.6°C 81% 0.7 mph N1.1 kmh N 1.8 mph2.9 kmh 30.25 in1024.4 mb 0.00 in0.0 mm 0.00 in0.0 mm 0.00 in0.0 mm
06:25 AM 38.1°F3.4°C 31.3°F-0.4°C 81% 0.7 mph N1.1 kmh N 1.8 mph2.9 kmh 30.25 in1024.4 mb 0.00 in0.0 mm 0.00 in0.0 mm 0.00 in0.0 mm
06:04 AM 38.5°F3.6°C 31.6°F-0.2°C 81% 0.7 mph 1.1 kmh 1.8 mph2.9 kmh 30.26 in1024.7 mb 0.00 in0.0 mm 0.00 in0.0 mm 0.00 in0.0 mm
05:44 AM 38.8°F3.8°C 32.0°F0.0°C 81% 0.7 mph N1.1 kmh N 1.8 mph2.9 kmh 30.27 in1025.1 mb 0.00 in0.0 mm 0.00 in0.0 mm 0.00 in0.0 mm
05:24 AM 39.4°F4.1°C 32.4°F0.2°C 81% 0.7 mph N1.1 kmh N 1.8 mph2.9 kmh 30.27 in1025.1 mb 0.00 in0.0 mm 0.00 in0.0 mm 0.00 in0.0 mm
05:03 AM 39.9°F4.4°C 33.3°F0.7°C 82% 0.7 mph 1.1 kmh 1.8 mph2.9 kmh 30.28 in1025.4 mb 0.00 in0.0 mm 0.00 in0.0 mm 0.00 in0.0 mm
04:43 AM 39.9°F4.4°C 33.8°F1.0°C 83% 0.7 mph N1.1 kmh N 2.5 mph4.0 kmh 30.28 in1025.4 mb 0.00 in0.0 mm 0.00 in0.0 mm 0.00 in0.0 mm
04:23 AM 40.1°F4.5°C 33.8°F1.0°C 83% 0.7 mph N1.1 kmh N 2.5 mph4.0 kmh 30.29 in1025.7 mb 0.00 in0.0 mm 0.00 in0.0 mm 0.00 in0.0 mm
04:03 AM 39.9°F4.4°C 33.8°F1.0°C 83% 0.7 mph N1.1 kmh N 1.8 mph2.9 kmh 30.29 in1025.7 mb 0.00 in0.0 mm 0.00 in0.0 mm 0.00 in0.0 mm
03:42 AM 39.6°F4.2°C 32.5°F0.3°C 81% 0.7 mph N1.1 kmh N 1.8 mph2.9 kmh 30.30 in1026.1 mb 0.00 in0.0 mm 0.00 in0.0 mm 0.00 in0.0 mm
03:23 AM 39.9°F4.4°C 32.5°F0.3°C 80% 0.7 mph N1.1 kmh N 0.7 mph1.1 kmh 30.31 in1026.4 mb 0.00 in0.0 mm 0.00 in0.0 mm 0.00 in0.0 mm
03:02 AM 40.3°F4.6°C 33.3°F0.7°C 81% 0.7 mph N1.1 kmh N 1.8 mph2.9 kmh 30.31 in1026.4 mb 0.00 in0.0 mm 0.00 in0.0 mm 0.00 in0.0 mm
02:42 AM 40.5°F4.7°C 33.1°F0.6°C 80% 0.7 mph N1.1 kmh N 1.8 mph2.9 kmh 30.32 in1026.8 mb 0.00 in0.0 mm 0.00 in0.0 mm 0.00 in0.0 mm
02:24 AM 40.8°F4.9°C 33.1°F0.6°C 79% Calm Calm 0.7 mph1.1 kmh 30.32 in1026.8 mb 0.00 in0.0 mm 0.00 in0.0 mm 0.00 in0.0 mm
02:03 AM 41.4°F5.2°C 33.6°F0.9°C 79% Calm Calm 0.7 mph1.1 kmh 30.33 in1027.1 mb 0.00 in0.0 mm 0.00 in0.0 mm 0.00 in0.0 mm
01:43 AM 41.7°F5.4°C 34.3°F1.3°C 80% Calm Calm 0.7 mph1.1 kmh 30.33 in1027.1 mb 0.00 in0.0 mm 0.00 in0.0 mm 0.00 in0.0 mm
01:22 AM 42.3°F5.7°C 34.5°F1.4°C 79% Calm Calm 0.7 mph1.1 kmh 30.34 in1027.4 mb 0.00 in0.0 mm 0.00 in0.0 mm 0.00 in0.0 mm
01:02 AM 42.8°F6.0°C 35.4°F1.9°C 80% Calm Calm 0.7 mph1.1 kmh 30.34 in1027.4 mb 0.00 in0.0 mm 0.00 in0.0 mm 0.00 in0.0 mm
12:42 AM 43.0°F6.1°C 36.0°F2.2°C 81% Calm Calm 1.8 mph2.9 kmh 30.35 in1027.8 mb 0.00 in0.0 mm 0.00 in0.0 mm 0.00 in0.0 mm
12:21 AM 43.2°F6.2°C 35.8°F2.1°C 80% Calm Calm 1.8 mph2.9 kmh 30.35 in1027.8 mb 0.00 in0.0 mm 0.00 in0.0 mm 0.00 in0.0 mm
12:02 AM 43.3°F6.3°C 35.6°F2.0°C 79% Calm Calm 0.7 mph1.1 kmh 30.35 in1027.8 mb 0.00 in0.0 mm 0.00 in0.0 mm 0.00 in0.0 mm